Pickstown, South Dakota
Current Conditions -  °F | °C
As of 6:35 PM on Friday 31 Oct 2014 (Local Time) from KONL Reporting Station
Clear Clear  
Wind Chill: 32°   Ceiling: Unl
Heat Index: 37°   Visibility: 10mi
Dew Point: 13°   Wind: 7mph
Humidity: 37%   Direction: 140°SE
Pressure: 30.38"   Gusts: NA
Location:  43.07°N, 98.53°W
Report Text: KONL 312335Z AUTO 14006KT 10SM CLR 03/M11 A3038 RMK AO2 T00301106
Loading
Personal Weather Stations






























Interactive Weather Map New forecast layout! Learn more

10-Day Weather Forecast

Advertisements
Track Severe Weather on mobile